NWS Home NWS Lubbock West Texas Mesonet                      Daily Summary For 10/29/2020

Latest   N   C   S   Daily Sum   3hrΔ   24hrΔ   Soil Data 
Site Map   24hr Precip   72hr Precip   Google Plot


Station Time of Last Max Temp Min Temp Max/Min Dew Pt. Max/Min RH 10m Avg Wind 2m Avg Wind Peak Gust @ 33ft (mph) Potential Evapotranspiration
mm/day or in/day
Rain Sum Solar Rad
MJ/m^2
% Clear Day Red Flag
Site Down for Maintenance
Abernathy 5ENE 11:59 PM 40 37 22 /16 91 / 15 16.4  (NW) 12.8 55.9 mph 360° @ 0301 AM 2 or 0.08 0.14 17.7 130.4 0
Adrian 6WSW 11:59 PM 40 37 22 /16 91 / 15 11.7  (NW) 8.9 28.5 mph 10° @ 0646 AM 1.3 or 0.05 0.50 18.2 140.2 0
Aiken 3WSW 11:59 PM 40 37 22 /16 91 / 15 15  (NW) 11.5 50.3 mph 348° @ 0205 AM 1.8 or 0.07 0.09 18.3 135.7 0
Amarillo 15NNW 11:59 PM 40 37 22 /16 91 / 15 9.7  (N) 6.6 27.2 mph 340° @ 0656 AM 1.3 or 0.05 1.21 17 132.1 0
Amarillo 7SSE 11:59 PM 40 37 22 /16 91 / 15 12.7  (N) 9.4 43.6 mph 345° @ 1202 AM 1.3 or 0.05 0.97 16.6 127.8 0
Amarillo 9NNE 11:59 PM 40 37 22 /16 91 / 15 8.4  (N) 6.1 31 mph 346° @ 1216 AM 1.3 or 0.05 1.59 18 139.5 0
Amherst 1NE 11:55 PM 40 37 22 /16 91 / 15 14.3  (NW) 10.4 48.3 mph 338° @ 1210 AM 2 or 0.08 0.01 17.4 128.8 0
Andrews 2E 11:55 PM 40 37 22 /16 91 / 15 11.3  (NW) 6.3 36.8 mph 327° @ 0125 AM 2.3 or 0.09 0.00 3.7 128.2 0
Anton 6SSW 11:55 PM 40 37 22 /16 91 / 15 14.9  (NW) 10.7 45.7 mph 331° @ 1225 AM 2 or 0.08 0.00 17.4 127.3 0
Aspermont 3NE 11:55 PM 40 37 22 /16 91 / 15 13.5  (W) 10.1 39.8 mph 341° @ 0515 AM 2.5 or 0.1 0.18 17.1 124.8 0
Big Bend NP - Castolon 11:59 PM 40 37 22 /16 91 / 15 5.7  (W) 4.2 20.2 mph 306° @ 0145 PM 2.8 or 0.11 0.00 20.1 128.4 0
Big Bend NP - Persimmon Gap 11:59 PM 40 37 22 /16 91 / 15 5.7  (W) 4.6 20.9 mph 336° @ 0123 PM 2.5 or 0.1 0.00 19.4 125.4 0
Big Lake 1WNW 11:59 PM 40 37 22 /16 91 / 15 13.5  (W) 10.9 42.4 mph 315° @ 0311 AM 2.8 or 0.11 0.00 19.5 131.9 0
Bootleg 11WNW 11:59 PM 40 37 22 /16 91 / 15 12.4  (NW) 8.6 35.2 mph 334° @ 1223 AM 1.5 or 0.06 0.37 15.7 118.9 0
Borger 7E 11:59 PM 40 37 22 /16 91 / 15 10.5  (N) 8.8 36.2 mph 1° @ 0241 AM 1.3 or 0.05 1.61 19.2 151.2 0
Boys Ranch 1WSW 11:59 PM 40 37 22 /16 91 / 15 5.9  (N) 4.4 30.2 mph 1° @ 1223 AM 1.3 or 0.05 0.72 16.4 128.7 0
Brownfield 2S 11:59 PM 40 37 22 /16 91 / 15 13.4  (NW) 10.4 50.4 mph 339° @ 0127 AM 2 or 0.08 0.00 17.8 128 0
Canadian 6E 11:59 PM 40 37 22 /16 91 / 15 13.6  (NW) 9.3 51.4 mph 350° @ 0148 AM 1.5 or 0.06 1.84 17.5 139.7 0
Caprock Canyons State Park 11:59 PM 40 37 22 /16 91 / 15 13.6  (NW) 9.7 54.7 mph 342° @ 0413 AM 2 or 0.08 0.21 18.1 136.5 0
Childress 2NNE 11:55 PM 40 37 22 /16 91 / 15 16  (NW) 7.4 41.5 mph 328° @ 0255 AM 2.3 or 0.09 0.29 15.7 119.8 0
Clarendon 2WSW 11:55 PM 40 37 22 /16 91 / 15 16.6  (N) 13.3 46.4 mph 343° @ 1235 AM 2 or 0.08 0.15 17.1 131.2 0
Claude 12SW 11:59 PM 40 37 22 /16 91 / 15 14.6  (NW) 7.6 53.6 mph 334° @ 1219 AM 1.5 or 0.06 1.00 18.4 140.6 0
Clyde 2WNW 11:59 PM 40 37 22 /16 91 / 15 14.4  (W) 10.4 36.8 mph 306° @ 0259 AM 2.3 or 0.09 0.00 12.7 90 0
Colorado City 5NW 11:59 PM 40 37 22 /16 91 / 15 10.9  (W) 7.5 31.4 mph 312° @ 0114 AM 2.3 or 0.09 0.00 17.7 125 0
Comanche Springs 11:59 PM 40 37 22 /16 91 / 15 12.1  (NW) 9.1 42.7 mph 332° @ 0357 AM 2 or 0.08 0.12 17.7 132.6 0
Coyanosa 2N 11:59 PM 40 37 22 /16 91 / 15 8  (W) 5.4 23.9 mph 337° @ 1128 AM 2.5 or 0.1 0.00 19 129.5 0
Crane 1NNW 11:59 PM 40 37 22 /16 91 / 15 10.8  (W) 8.6 33.5 mph 319° @ 1256 AM 2.8 or 0.11 0.00 19.5 133 0
Crowell 1E 11:59 PM 40 37 22 /16 91 / 15 15  (NW) 12.1 44.2 mph 352° @ 0448 AM 2 or 0.08 0.39 17.5 131.1 0
Dell City 11:59 PM 40 37 22 /16 91 / 15 3.6  (E) 2.5 13.7 mph 250° @ 0349 PM 1.5 or 0.06 0.00 18.1 124.4 0
Denver City 7WNW 11:55 PM 40 37 22 /16 91 / 15 11.3  (NW) 7.9 34.1 mph 339° @ 1250 AM 2.3 or 0.09 0.00 18.9 134.6 0
Dimmitt 2NE 11:55 PM 40 37 22 /16 91 / 15 15.1  (NW) 11.3 40 mph 329° @ 1210 AM 1.5 or 0.06 0.02 17.3 130.4 0
Doole 3WNW 11:59 PM 40 37 22 /16 91 / 15 14.2  (W) 10.2 38.4 mph 312° @ 0723 AM 2.5 or 0.1 0.00 11.8 81.5 0
Dora NM 2SW 11:55 PM 40 37 22 /16 91 / 15 12.1  (N) 7.1 36.8 mph 343° @ 1210 AM 2 or 0.08 0.01 16.4 119.8 0
Dozier 3W 11:59 PM 40 37 22 /16 91 / 15 15.3  (NW) 10.6 46 mph 338° @ 0232 AM 1.8 or 0.07 0.25 17 131.7 0
Earth 9WSW 11:59 PM 40 37 22 /16 91 / 15 13  (NW) 6.7 41.4 mph 335° @ 1253 AM 2 or 0.08 0.03 17.5 130.3 0
Endee NM 2SW 11:59 PM 40 37 22 /16 91 / 15 7.7  (N) 5.1 23.8 mph 338° @ 0213 AM 1.3 or 0.05 0.23 16.8 128.9 0
Estelline 3SSE 11:59 PM 40 37 22 /16 91 / 15 13.6  (NW) 9.4 41.9 mph 324° @ 0214 AM 2.3 or 0.09 0.08 17 129.6 0
Floydada 2NNE 11:55 PM 40 37 22 /16 91 / 15 15.1  (NW) 10.8 49 mph 345° @ 0240 AM 2.3 or 0.09 0.00 17.5 129.5 0
Fluvanna 3WNW 11:55 PM 40 37 22 /16 91 / 15 13.3  (NW) 9.9 39.7 mph 351° @ 0350 AM 2.3 or 0.09 0.15 17.2 122.9 0
Fort Chadbourne 11:59 PM 40 37 22 /16 91 / 15 11.5  (W) 8 35.1 mph 285° @ 0149 AM 2.3 or 0.09 0.00 10.7 75.1 0
Fort Lancaster 11:59 PM 40 37 22 /16 91 / 15 10.9  (NW) 7 35.3 mph 315° @ 0331 AM 3 or 0.12 0.00 18.7 125 0
Fort Lewis CO 11:59 PM 40 37 22 /16 91 / 15 5.4  (NE) 3.4 14.8 mph 43° @ 0526 AM 1.3 or 0.05 0.00 17.3 139.7 0
Fort McKavett 11:59 PM 40 37 22 /16 91 / 15 10.4  (SW) 5.7 32.1 mph 301° @ 0545 AM 2 or 0.08 0.00 13.3 89.1 0
Friona 2NE 11:55 PM 40 37 22 /16 91 / 15 12.9  (NW) 9.6 33.1 mph 348° @ 0515 AM 1.8 or 0.07 0.27 18.1 136.7 0
Fritch 1WNW 11:59 PM 40 37 22 /16 91 / 15 9.8  (N) 7.3 33.8 mph 13° @ 0141 AM 1.3 or 0.05 1.21 17.3 136.2 0
Gail 2ESE 11:55 PM 40 37 22 /16 91 / 15 11.8  (NW) 8 32.7 mph 323° @ 0110 AM 2.3 or 0.09 0.01 3.5 125.7 0
Goodlett 3W 11:55 PM 40 37 22 /16 91 / 15 16.8  (NW) 12.7 42.4 mph 347° @ 0525 AM 2.3 or 0.09 0.68 17.8 134.8 0
Goodnight 11:59 PM 40 37 22 /16 91 / 15 16.5  (N) 12.5 49 mph 336° @ 0104 AM 1.8 or 0.07 0.48 16.8 128.9 0
Graham 5SSW 11:55 PM 40 37 22 /16 91 / 15 13.9  (NW) 10.2 44.2 mph 329° @ 1250 AM 2.3 or 0.09 0.00 3.4 123.4 0
Guadalupe Mtns Natl Park 11:59 PM 40 37 22 /16 91 / 15 6.2  (NE) 4.6 21.6 mph 86° @ 0116 PM 1.8 or 0.07 0.01 17.3 117.1 0
Guthrie 10WSW 11:55 PM 40 37 22 /16 91 / 15 13.3  (NW) 9.8 42.7 mph 333° @ 0240 AM 2.5 or 0.1 0.01 18.6 136.7 0
Hackberry 2SSE 11:59 PM 40 37 22 /16 91 / 15 14.8  (NW) 6.9 42.5 mph 339° @ 0342 AM 2.3 or 0.09 0.09 18.3 136.8 0
Happy 1E 11:59 PM 40 37 22 /16 91 / 15 14.5  (N) 10.3 48 mph 351° @ 1203 AM 1.5 or 0.06 0.32 18.2 137.6 0
Hart 3N 11:55 PM 40 37 22 /16 91 / 15 14.9  (NW) 10.3 44.9 mph 334° @ 1210 AM 1.8 or 0.07 0.02 17.6 131.8 0
Haskell 1NW 11:55 PM 40 37 22 /16 91 / 15 14.1  (W) 9.1 37 mph 344° @ 0540 AM 2.3 or 0.09 0.00 15.9 116.1 0
Hefner 1SW 11:59 PM 40 37 22 /16 91 / 15 15.3  (W) 10 35.9 mph 332° @ 0451 AM 2.3 or 0.09 0.00 16 117.9 0
Hereford 2NW 11:55 PM 40 37 22 /16 91 / 15 12.1  (NW) 9.8 33.5 mph 350° @ 0620 AM 1.5 or 0.06 0.98 17.5 132.5 0
Hobbs NM 5NW 11:59 PM 40 37 22 /16 91 / 15 9.4  (N) 7.2 28.7 mph 341° @ 1207 AM 2.3 or 0.09 0.00 18.7 132.4 0
Jayton 1SSE 11:55 PM 40 37 22 /16 91 / 15 12.9  (W) 10.1 36.2 mph 324° @ 0100 AM 2.5 or 0.1 0.00 17.1 124.4 0
Junction 1SSW 11:59 PM 40 37 22 /16 91 / 15 8  (SW) 5.9 29.2 mph 323° @ 0934 AM 1.8 or 0.07 0.00 13.4 89.2 0
Kent 9E 11:59 PM 40 37 22 /16 91 / 15 6.8  (SW) 2.5 23.2 mph 227° @ 0326 AM 2.3 or 0.09 0.00 19.3 128.9 0
Knox City 3NW 11:59 PM 40 37 22 /16 91 / 15 12.4  (W) 8.2 37.3 mph 334° @ 0443 AM 2.3 or 0.09 0.00 17.1 126.2 0
Lake Alan Henry 1NW 11:59 PM 40 37 22 /16 91 / 15 10.6  (NW) 6.3 38.8 mph 357° @ 0337 AM 2.3 or 0.09 0.72 17.6 127 0
Lake McClellan 2NW 11:59 PM 40 37 22 /16 91 / 15 18  (NW) 9.4 44.1 mph 335° @ 1239 AM 1.5 or 0.06 0.69 17.1 132.2 0
Lamesa 2SE 11:55 PM 40 37 22 /16 91 / 15 10.2  (NW) 4.6 34.7 mph 339° @ 0140 AM 2 or 0.08 0.00 18.8 133.3 0
Lesley 2S 11:59 PM 40 37 22 /16 91 / 15 15.5  (NW) 11 42.3 mph 344° @ 0714 AM 2.3 or 0.09 0.05 18.2 139 0
Levelland 4S 11:59 PM 40 37 22 /16 91 / 15 15  (NW) 11.6 54.8 mph 335° @ 1228 AM 2.3 or 0.09 0.00 17 123.9 0
Lomax 1SSE 11:59 PM 40 37 22 /16 91 / 15 11.9  (W) 9.1 33.9 mph 322° @ 0427 AM 2.3 or 0.09 0.00 18.8 131.2 0
Lubbock 3WNW TTU 11:55 PM 40 37 22 /16 91 / 15 11.4  (NW) 7.9 41.2 mph 338° @ 0210 AM 2 or 0.08 0.04 18.1 131.9 0
McAdoo 3NNW 11:59 PM 40 37 22 /16 91 / 15 15.6  (NW) 11.2 51.5 mph 350° @ 0320 AM 2.3 or 0.09 0.01 17.6 129.9 0
McCamey 1SSW 11:59 PM 40 37 22 /16 91 / 15 10.5  (W) 7.9 31.9 mph 323° @ 0404 AM 2.8 or 0.11 0.00 16.7 113.4 0
McLean 1E 11:55 PM 40 37 22 /16 91 / 15 17  (NW) 11.5 46.8 mph 335° @ 0205 AM 1.8 or 0.07 0.73 18.3 142.1 0
Memphis 1NE 11:55 PM 40 37 22 /16 91 / 15 15.8  (NW) 12.7 40.5 mph 337° @ 0320 AM 2 or 0.08 0.03 3.2 121.7 0
Menard 2NW 11:59 PM 40 37 22 /16 91 / 15 11.9  (W) 8.9 33.5 mph 324° @ 1125 AM 2 or 0.08 0.00 11.9 80.4 0
Mertzon 3NNE 11:59 PM 40 37 22 /16 91 / 15 11  (W) 8 31.6 mph 315° @ 0529 AM 2.3 or 0.09 0.00 15.7 107.2 0
Morton 1ENE 11:55 PM 40 37 22 /16 91 / 15 12.6  (N) 8.4 41.6 mph 341° @ 1235 AM 2 or 0.08 0.08 17.6 128.7 0
Muleshoe 2SSW 11:55 PM 40 37 22 /16 91 / 15 11.1  (N) 7.5 42.1 mph 344° @ 1220 AM 2 or 0.08 0.01 18.9 140.3 0
New Home 11:59 PM 40 37 22 /16 91 / 15 11.9  (NW) 7 51.3 mph 349° @ 0112 AM 2 or 0.08 0.00 17.2 124.1 0
Northfield 1S 11:55 PM 40 37 22 /16 91 / 15 12.7  (NW) 9 38.5 mph 329° @ 0320 AM 2.3 or 0.09 0.06 16.8 127 0
O'Donnell 1N 11:55 PM 40 37 22 /16 91 / 15 12.5  (NW) 8 43 mph 333° @ 0100 AM 2 or 0.08 0.00 15.7 112.6 0
Odell 4ENE 11:59 PM 40 37 22 /16 91 / 15 14.3  (W) 10.1 38.1 mph 346° @ 0545 AM 2 or 0.08 0.01 17.2 130.7 0
Olton 6S 11:55 PM 40 37 22 /16 91 / 15 15.5  (NW) 12.2 46.4 mph 344° @ 1245 AM 2 or 0.08 0.15 17.6 130.4 0
Paducah 10SW 11:55 PM 40 37 22 /16 91 / 15 16.6  (NW) 8.2 45.9 mph 344° @ 0420 AM 2.5 or 0.1 0.22 16.3 121.5 0
Palo Duro 4E (JA Ranch) 11:59 PM 40 37 22 /16 91 / 15 15.5  (N) 11 49.3 mph 339° @ 0123 AM 2 or 0.08 0.20 17.4 133.1 0
Palo Duro Canyon SP Floor 11:59 PM 40 37 22 /16 91 / 15 7.5  (NW) 3.7 36.4 mph 324° @ 1201 AM 1.5 or 0.06 0.52 16.3 125.2 0
Palo Duro Canyon State Park Rim 11:59 PM 40 37 22 /16 91 / 15 12.6  (N) 6.2 50.9 mph 346° @ 1213 AM 1.5 or 0.06 0.80 18.2 139.3 0
Palo Duro Reservoir 1NW 08:55 AM 40 37 22 /16 91 / 15 19.7  (N) 14.3 48.2 mph 355° @ 1210 AM 0.8 or 0.03 0.94 0.1 1.2 0
Pampa 2E 11:55 PM 40 37 22 /16 91 / 15 9.3  (N) 6 31.1 mph 328° @ 0745 AM 1 or 0.04 2.26 16.6 129.9 0
Panhandle 1SSW 11:59 PM 40 37 22 /16 91 / 15 12.9  (N) 7.2 49.3 mph 341° @ 1204 AM 1 or 0.04 1.94 17.5 136.1 0
Plains 3N 11:55 PM 40 37 22 /16 91 / 15 12.6  (NW) 10 41 mph 343° @ 0200 AM 2 or 0.08 0.00 18.5 132.6 0
Plainview 1S 11:59 PM 40 37 22 /16 91 / 15 12.1  (NW) 9.3 47.1 mph 354° @ 0305 AM 1.8 or 0.07 0.37 18.3 136 0
Post 1NE 11:55 PM 40 37 22 /16 91 / 15 12.4  (NW) 8.4 39.7 mph 335° @ 0110 AM 2.5 or 0.1 0.00 3.6 129.2 0
Ralls 1SE 11:55 PM 40 37 22 /16 91 / 15 14.9  (NW) 11.9 54.9 mph 343° @ 0230 AM 2.3 or 0.09 0.00 3.5 127.3 0
Reese Center 11:59 PM 40 37 22 /16 91 / 15 15.7  (NW) 11.3 58.1 mph 342° @ 1235 AM M or M 0.21 17.7 129.4 0
Roaring Springs 3N 11:55 PM 40 37 22 /16 91 / 15 16.9  (NW) 10.2 52.9 mph 328° @ 0240 AM 2.3 or 0.09 0.01 3.2 119.9 0
Romero 11SSW 11:59 PM 40 37 22 /16 91 / 15 8.7  (N) 6.1 25.8 mph 15° @ 0809 AM 1.5 or 0.06 0.00 16.2 126.3 0
Rotan 5W 11:59 PM 40 37 22 /16 91 / 15 13.1  (W) 10.2 37.6 mph 325° @ 0402 AM 2.3 or 0.09 0.05 17.3 124.1 0
San Angelo 7NW 11:55 PM 40 37 22 /16 91 / 15 11.9  (W) 9.5 36.5 mph 294° @ 0235 AM 2.3 or 0.09 0.00 13.7 94.4 0
Seagraves 1SW 11:55 PM 40 37 22 /16 91 / 15 12.1  (NW) 8.8 40.6 mph 342° @ 0105 AM 2 or 0.08 0.00 15.9 113.6 0
Segovia 7SSW 11:59 PM 40 37 22 /16 91 / 15 12.8  (NW) 9.6 40 mph 332° @ 1021 AM 2.5 or 0.1 0.00 16.4 108.3 0
Seminole 2NNE 11:55 PM 40 37 22 /16 91 / 15 10.6  (NW) 7.1 34.3 mph 325° @ 1220 AM 2 or 0.08 0.01 18.1 128.6 0
Seymour 3NW 11:55 PM 40 37 22 /16 91 / 15 14.6  (W) 11.4 38.5 mph 335° @ 0530 AM 2 or 0.08 0.00 13.5 100 0
Sierra Blanca 1SSE 11:59 PM 40 37 22 /16 91 / 15 5.6  (NE) 3.9 18.2 mph 87° @ 0216 PM 2 or 0.08 0.00 17.1 113.8 0
Silverton 7ESE 11:55 PM 40 37 22 /16 91 / 15 17  (NW) 12.8 48.9 mph 339° @ 1250 AM 2 or 0.08 0.41 16.8 126.8 0
Slaton 2NE 11:59 PM 40 37 22 /16 91 / 15 13.2  (NW) 10 50.4 mph 338° @ 0140 AM 2 or 0.08 0.00 18.8 136.7 0
Smyer 11:59 PM 40 37 22 /16 91 / 15 16.1  (NW) 13.3 53.2 mph 344° @ 1237 AM 2.3 or 0.09 0.01 18.6 135.3 0
Snyder 3E 11:55 PM 40 37 22 /16 91 / 15 13.2  (NW) 5.7 36.8 mph 323° @ 0115 AM 2.3 or 0.09 0.10 15.8 112.8 0
Snyder 3SSW 11:59 PM 40 37 22 /16 91 / 15 10.7  (NW) 6.9 32.3 mph 321° @ 0108 AM 2.3 or 0.09 0.00 17.8 126.7 0
South Plains 3ENE 11:59 PM 40 37 22 /16 91 / 15 13.9  (NW) 10.7 43.3 mph 347° @ 0245 AM 2 or 0.08 0.04 17.1 128 0
Spur 1W 11:55 PM 40 37 22 /16 91 / 15 12.1  (NW) 8.5 41.4 mph 3° @ 0345 AM 2.3 or 0.09 0.00 17.4 127.7 0
St. Lawrence 5SW 11:55 PM 40 37 22 /16 91 / 15 14.5  (W) 12.6 43.7 mph 327° @ 0320 AM 2.5 or 0.1 0.00 18.5 127.2 0
Stamford 5ESE 11:59 PM 40 37 22 /16 91 / 15 13.6  (W) 9.9 30.6 mph 355° @ 1102 AM 2.3 or 0.09 0.00 15 108.2 0
Sterling City 4WSW 11:59 PM 40 37 22 /16 91 / 15 9.9  (W) 6.7 32.7 mph 296° @ 0328 AM 2 or 0.08 0.00 13.8 95.7 0
Stinnett 1NNW 11:59 PM 40 37 22 /16 91 / 15 15.2  (N) 10.9 44.1 mph 350° @ 0112 AM 1.3 or 0.05 0.86 17.4 138 0
Stratford 4WNW 11:59 PM 40 37 22 /16 91 / 15 12.7  (N) 9.2 36.2 mph 349° @ 1253 AM 2 or 0.08 0.03 16.8 134.8 0
Sundown 8WSW 11:55 PM 40 37 22 /16 91 / 15 14.1  (N) 8.8 47.4 mph 344° @ 0110 AM 2.3 or 0.09 0.00 15.8 114.3 0
Sweetwater 11SW 11:59 PM 40 37 22 /16 91 / 15 12.3  (W) 8.9 36.7 mph 336° @ 0521 AM 2.3 or 0.09 0.00 16.2 114.4 0
Tahoka 3NNE 11:59 PM 40 37 22 /16 91 / 15 13.2  (NW) 9 53.9 mph 346° @ 0116 AM 2.3 or 0.09 0.00 17.8 128.6 0
Tarzan 2WNW 11:59 PM 40 37 22 /16 91 / 15 12  (NW) 7.4 38.1 mph 332° @ 0209 AM 2.3 or 0.09 0.00 18.4 129.4 0
Tatum NM 2SW 11:55 PM 40 37 22 /16 91 / 15 12.7  (NW) 7.5 35.6 mph 324° @ 0100 AM 2.3 or 0.09 0.00 18.6 133.4 0
Throckmorton 1SW 11:59 PM 40 37 22 /16 91 / 15 11.9  (W) 6 32.5 mph 303° @ 0249 AM 2 or 0.08 0.00 13.9 101.7 0
Truscott 2SE 11:59 PM 40 37 22 /16 91 / 15 14.9  (W) 10.1 43.3 mph 341° @ 0335 AM 2.3 or 0.09 0.02 16.5 122.7 0
Tulia 2ENE 11:55 PM 40 37 22 /16 91 / 15 13.9  (NW) 10 44.6 mph 338° @ 1230 AM 1.8 or 0.07 0.43 15.2 114.7 0
Turkey 2WSW 11:55 PM 40 37 22 /16 91 / 15 17.2  (NW) 11.5 50.7 mph 320° @ 0405 AM 2.3 or 0.09 0.11 15.4 116.3 0
Umbarger 3NNE 11:59 PM 40 37 22 /16 91 / 15 12.1  (N) 8.1 33.2 mph 345° @ 1205 AM 1.3 or 0.05 1.01 17.1 130.8 0
Van Horn 3ENE 11:59 PM 40 37 22 /16 91 / 15 5.3  (S) 3.6 21.2 mph 12° @ 0208 PM 2 or 0.08 0.00 20 133.4 0
Vega 4E 11:59 PM 40 37 22 /16 91 / 15 12.8  (N) 9.1 35.1 mph 346° @ 1223 AM 1 or 0.04 0.40 18.8 144.6 0
Vigo Park 11:59 PM 40 37 22 /16 91 / 15 14.4  (N) 10.6 52.8 mph 338° @ 0106 AM 1.8 or 0.07 1.03 15.9 120.4 0
Wall 2E 11:59 PM 40 37 22 /16 91 / 15 12.9  (W) 9.9 32 mph 297° @ 0424 AM 2.3 or 0.09 0.00 11.7 80.2 0
Weinert 2NNE 11:59 PM 40 37 22 /16 91 / 15 13  (W) 9.5 36 mph 345° @ 0502 AM 2.3 or 0.09 0.00 15.2 111.6 0
Welch 11:59 PM 40 37 22 /16 91 / 15 12.7  (NW) 9.8 41.1 mph 337° @ 0110 AM 2 or 0.08 0.00 18 128.9 0
White River Lake 6NW 11:59 PM 40 37 22 /16 91 / 15 16.9  (NW) 12.1 62.5 mph 339° @ 0255 AM 2.5 or 0.1 0.00 18.2 133.4 0
Wolfforth 6SSW 11:59 PM 40 37 22 /16 91 / 15 14.3  (NW) 10.4 52.6 mph 344° @ 1249 AM 2 or 0.08 0.00 18.2 132.3 0

WestTexas Mesonet Home    Site Map/Menu  National Weather Service Lubbock   Soil Data   Latest Observation Page   Previous  Date